sensor_id;sensor_type;location;lat;lon;timestamp;P1;durP1;ratioP1;P2;durP2;ratioP2
41667;SDS011;27356;50.920;5.350;2024-01-11T00:01:35;44.13;;;17.52;;
41667;SDS011;27356;50.920;5.350;2024-01-11T00:04:01;38.25;;;15.88;;
41667;SDS011;27356;50.920;5.350;2024-01-11T00:06:27;43.63;;;16.73;;
41667;SDS011;27356;50.920;5.350;2024-01-11T00:08:53;44.15;;;16.65;;
41667;SDS011;27356;50.920;5.350;2024-01-11T00:11:19;43.83;;;17.73;;
41667;SDS011;27356;50.920;5.350;2024-01-11T00:13:44;42.67;;;16.90;;
41667;SDS011;27356;50.920;5.350;2024-01-11T00:16:10;41.17;;;16.38;;
41667;SDS011;27356;50.920;5.350;2024-01-11T00:18:36;42.97;;;18.02;;
41667;SDS011;27356;50.920;5.350;2024-01-11T00:21:02;46.10;;;17.02;;
41667;SDS011;27356;50.920;5.350;2024-01-11T00:23:28;39.22;;;17.50;;
41667;SDS011;27356;50.920;5.350;2024-01-11T00:25:53;41.65;;;16.25;;
41667;SDS011;27356;50.920;5.350;2024-01-11T00:28:19;40.92;;;17.00;;
41667;SDS011;27356;50.920;5.350;2024-01-11T00:30:45;45.00;;;18.60;;
41667;SDS011;27356;50.920;5.350;2024-01-11T00:33:11;43.58;;;17.60;;
41667;SDS011;27356;50.920;5.350;2024-01-11T00:35:37;39.47;;;17.15;;
41667;SDS011;27356;50.920;5.350;2024-01-11T00:38:03;38.42;;;16.65;;
41667;SDS011;27356;50.920;5.350;2024-01-11T00:40:29;43.70;;;17.98;;
41667;SDS011;27356;50.920;5.350;2024-01-11T00:42:55;41.75;;;17.02;;
41667;SDS011;27356;50.920;5.350;2024-01-11T00:45:20;45.05;;;16.73;;
41667;SDS011;27356;50.920;5.350;2024-01-11T00:47:46;45.25;;;17.23;;
41667;SDS011;27356;50.920;5.350;2024-01-11T00:50:12;43.25;;;16.40;;
41667;SDS011;27356;50.920;5.350;2024-01-11T00:52:38;36.60;;;15.52;;
41667;SDS011;27356;50.920;5.350;2024-01-11T00:55:04;39.35;;;16.90;;
41667;SDS011;27356;50.920;5.350;2024-01-11T00:57:30;45.63;;;16.70;;
41667;SDS011;27356;50.920;5.350;2024-01-11T00:59:56;39.40;;;16.27;;
41667;SDS011;27356;50.920;5.350;2024-01-11T01:02:22;41.35;;;17.20;;
41667;SDS011;27356;50.920;5.350;2024-01-11T01:04:47;44.80;;;16.27;;
41667;SDS011;27356;50.920;5.350;2024-01-11T01:07:13;36.30;;;15.13;;
41667;SDS011;27356;50.920;5.350;2024-01-11T01:09:39;42.90;;;16.25;;
41667;SDS011;27356;50.920;5.350;2024-01-11T01:12:05;43.60;;;16.23;;
41667;SDS011;27356;50.920;5.350;2024-01-11T01:14:31;38.75;;;16.67;;
41667;SDS011;27356;50.920;5.350;2024-01-11T01:16:57;46.90;;;16.13;;
41667;SDS011;27356;50.920;5.350;2024-01-11T01:19:23;50.40;;;16.77;;
41667;SDS011;27356;50.920;5.350;2024-01-11T01:21:48;35.60;;;15.68;;
41667;SDS011;27356;50.920;5.350;2024-01-11T01:24:15;45.75;;;17.92;;
41667;SDS011;27356;50.920;5.350;2024-01-11T01:26:40;40.83;;;15.55;;
41667;SDS011;27356;50.920;5.350;2024-01-11T01:29:06;45.75;;;17.38;;
41667;SDS011;27356;50.920;5.350;2024-01-11T01:31:32;43.78;;;17.65;;
41667;SDS011;27356;50.920;5.350;2024-01-11T01:34:03;39.33;;;16.33;;
41667;SDS011;27356;50.920;5.350;2024-01-11T01:36:29;46.53;;;16.67;;
41667;SDS011;27356;50.920;5.350;2024-01-11T01:38:55;36.97;;;17.50;;
41667;SDS011;27356;50.920;5.350;2024-01-11T01:41:21;40.63;;;16.45;;
41667;SDS011;27356;50.920;5.350;2024-01-11T01:43:47;44.72;;;16.52;;
41667;SDS011;27356;50.920;5.350;2024-01-11T01:46:13;43.65;;;16.65;;
41667;SDS011;27356;50.920;5.350;2024-01-11T01:48:44;40.50;;;15.25;;
41667;SDS011;27356;50.920;5.350;2024-01-11T01:51:10;40.58;;;15.25;;
41667;SDS011;27356;50.920;5.350;2024-01-11T01:53:37;47.70;;;16.30;;
41667;SDS011;27356;50.920;5.350;2024-01-11T01:56:03;36.40;;;15.40;;
41667;SDS011;27356;50.920;5.350;2024-01-11T01:58:30;41.25;;;16.13;;
41667;SDS011;27356;50.920;5.350;2024-01-11T02:00:56;40.25;;;16.00;;
41667;SDS011;27356;50.920;5.350;2024-01-11T02:03:23;46.38;;;17.10;;
41667;SDS011;27356;50.920;5.350;2024-01-11T02:05:51;39.67;;;15.90;;
41667;SDS011;27356;50.920;5.350;2024-01-11T02:08:18;39.00;;;15.43;;
41667;SDS011;27356;50.920;5.350;2024-01-11T02:10:46;45.85;;;17.27;;
41667;SDS011;27356;50.920;5.350;2024-01-11T02:13:13;37.05;;;15.43;;
41667;SDS011;27356;50.920;5.350;2024-01-11T02:15:39;43.58;;;16.13;;
41667;SDS011;27356;50.920;5.350;2024-01-11T02:18:05;34.85;;;15.85;;
41667;SDS011;27356;50.920;5.350;2024-01-11T02:20:31;49.72;;;16.42;;
41667;SDS011;27356;50.920;5.350;2024-01-11T02:22:58;41.08;;;16.02;;
41667;SDS011;27356;50.920;5.350;2024-01-11T02:25:30;45.20;;;16.83;;
41667;SDS011;27356;50.920;5.350;2024-01-11T02:27:56;40.28;;;15.23;;
41667;SDS011;27356;50.920;5.350;2024-01-11T02:30:21;40.42;;;16.77;;
41667;SDS011;27356;50.920;5.350;2024-01-11T02:32:48;44.05;;;16.38;;
41667;SDS011;27356;50.920;5.350;2024-01-11T02:35:15;41.85;;;17.35;;
41667;SDS011;27356;50.920;5.350;2024-01-11T02:37:41;45.92;;;16.70;;
41667;SDS011;27356;50.920;5.350;2024-01-11T02:40:08;37.92;;;17.35;;
41667;SDS011;27356;50.920;5.350;2024-01-11T02:42:35;45.08;;;19.30;;
41667;SDS011;27356;50.920;5.350;2024-01-11T02:45:04;44.38;;;16.52;;
41667;SDS011;27356;50.920;5.350;2024-01-11T02:47:30;38.45;;;16.27;;
41667;SDS011;27356;50.920;5.350;2024-01-11T02:49:56;55.45;;;17.02;;
41667;SDS011;27356;50.920;5.350;2024-01-11T02:52:22;35.58;;;15.55;;
41667;SDS011;27356;50.920;5.350;2024-01-11T02:54:48;40.72;;;15.40;;
41667;SDS011;27356;50.920;5.350;2024-01-11T02:57:14;41.65;;;15.68;;
41667;SDS011;27356;50.920;5.350;2024-01-11T02:59:40;41.83;;;16.05;;
41667;SDS011;27356;50.920;5.350;2024-01-11T03:02:07;38.30;;;15.50;;
41667;SDS011;27356;50.920;5.350;2024-01-11T03:04:33;36.90;;;15.13;;
41667;SDS011;27356;50.920;5.350;2024-01-11T03:06:58;39.38;;;16.58;;
41667;SDS011;27356;50.920;5.350;2024-01-11T03:09:24;40.95;;;16.48;;
41667;SDS011;27356;50.920;5.350;2024-01-11T03:11:50;34.08;;;15.55;;
41667;SDS011;27356;50.920;5.350;2024-01-11T03:14:16;42.70;;;17.23;;
41667;SDS011;27356;50.920;5.350;2024-01-11T03:16:42;50.83;;;17.00;;
41667;SDS011;27356;50.920;5.350;2024-01-11T03:19:08;38.53;;;16.58;;
41667;SDS011;27356;50.920;5.350;2024-01-11T03:21:34;39.08;;;17.55;;
41667;SDS011;27356;50.920;5.350;2024-01-11T03:23:59;50.28;;;17.83;;
41667;SDS011;27356;50.920;5.350;2024-01-11T03:26:25;37.03;;;16.02;;
41667;SDS011;27356;50.920;5.350;2024-01-11T03:28:51;37.10;;;16.40;;
41667;SDS011;27356;50.920;5.350;2024-01-11T03:31:17;50.20;;;18.33;;
41667;SDS011;27356;50.920;5.350;2024-01-11T03:33:43;41.15;;;15.85;;
41667;SDS011;27356;50.920;5.350;2024-01-11T03:36:09;43.78;;;17.38;;
41667;SDS011;27356;50.920;5.350;2024-01-11T03:38:36;43.83;;;18.83;;
41667;SDS011;27356;50.920;5.350;2024-01-11T03:41:02;44.60;;;18.20;;
41667;SDS011;27356;50.920;5.350;2024-01-11T03:43:32;49.53;;;17.95;;
41667;SDS011;27356;50.920;5.350;2024-01-11T03:45:58;45.60;;;17.85;;
41667;SDS011;27356;50.920;5.350;2024-01-11T03:48:24;45.72;;;17.60;;
41667;SDS011;27356;50.920;5.350;2024-01-11T03:50:50;40.97;;;18.58;;
41667;SDS011;27356;50.920;5.350;2024-01-11T03:53:15;46.10;;;17.67;;
41667;SDS011;27356;50.920;5.350;2024-01-11T03:55:42;42.30;;;16.92;;
41667;SDS011;27356;50.920;5.350;2024-01-11T03:58:08;50.50;;;17.80;;
41667;SDS011;27356;50.920;5.350;2024-01-11T04:00:34;42.45;;;18.17;;
41667;SDS011;27356;50.920;5.350;2024-01-11T04:02:59;51.97;;;18.30;;
41667;SDS011;27356;50.920;5.350;2024-01-11T04:05:26;41.60;;;17.38;;
41667;SDS011;27356;50.920;5.350;2024-01-11T04:07:53;39.75;;;16.45;;
41667;SDS011;27356;50.920;5.350;2024-01-11T04:10:19;44.40;;;17.15;;
41667;SDS011;27356;50.920;5.350;2024-01-11T04:12:45;45.38;;;19.20;;
41667;SDS011;27356;50.920;5.350;2024-01-11T04:15:14;38.78;;;16.95;;
41667;SDS011;27356;50.920;5.350;2024-01-11T04:17:40;50.70;;;20.20;;
41667;SDS011;27356;50.920;5.350;2024-01-11T04:20:06;46.83;;;18.75;;
41667;SDS011;27356;50.920;5.350;2024-01-11T04:22:36;47.80;;;18.10;;
41667;SDS011;27356;50.920;5.350;2024-01-11T04:25:02;40.67;;;17.38;;
41667;SDS011;27356;50.920;5.350;2024-01-11T04:27:28;38.22;;;15.88;;
41667;SDS011;27356;50.920;5.350;2024-01-11T04:29:53;41.20;;;16.75;;
41667;SDS011;27356;50.920;5.350;2024-01-11T04:32:19;47.47;;;19.20;;
41667;SDS011;27356;50.920;5.350;2024-01-11T04:34:45;50.00;;;19.75;;
41667;SDS011;27356;50.920;5.350;2024-01-11T04:37:11;37.30;;;18.40;;
41667;SDS011;27356;50.920;5.350;2024-01-11T04:39:37;42.72;;;17.80;;
41667;SDS011;27356;50.920;5.350;2024-01-11T04:42:02;43.95;;;18.48;;
41667;SDS011;27356;50.920;5.350;2024-01-11T04:44:28;42.00;;;17.67;;
41667;SDS011;27356;50.920;5.350;2024-01-11T04:46:54;43.15;;;17.27;;
41667;SDS011;27356;50.920;5.350;2024-01-11T04:49:20;45.70;;;18.05;;
41667;SDS011;27356;50.920;5.350;2024-01-11T04:51:46;46.17;;;17.58;;
41667;SDS011;27356;50.920;5.350;2024-01-11T04:54:12;47.97;;;18.48;;
41667;SDS011;27356;50.920;5.350;2024-01-11T04:56:38;42.53;;;18.58;;
41667;SDS011;27356;50.920;5.350;2024-01-11T04:59:04;46.08;;;19.95;;
41667;SDS011;27356;50.920;5.350;2024-01-11T05:01:29;44.33;;;18.85;;
41667;SDS011;27356;50.920;5.350;2024-01-11T05:03:55;48.92;;;19.67;;
41667;SDS011;27356;50.920;5.350;2024-01-11T05:06:22;45.03;;;18.40;;
41667;SDS011;27356;50.920;5.350;2024-01-11T05:08:49;49.47;;;18.88;;
41667;SDS011;27356;50.920;5.350;2024-01-11T05:13:49;53.72;;;19.08;;
41667;SDS011;27356;50.920;5.350;2024-01-11T05:18:49;50.95;;;20.67;;
41667;SDS011;27356;50.920;5.350;2024-01-11T05:21:20;45.20;;;19.40;;
41667;SDS011;27356;50.920;5.350;2024-01-11T05:23:46;52.92;;;21.15;;
41667;SDS011;27356;50.920;5.350;2024-01-11T05:26:13;55.22;;;21.13;;
41667;SDS011;27356;50.920;5.350;2024-01-11T05:28:40;52.70;;;19.70;;
41667;SDS011;27356;50.920;5.350;2024-01-11T05:31:10;51.65;;;20.85;;
41667;SDS011;27356;50.920;5.350;2024-01-11T05:33:37;46.33;;;21.45;;
41667;SDS011;27356;50.920;5.350;2024-01-11T05:36:04;56.42;;;20.88;;
41667;SDS011;27356;50.920;5.350;2024-01-11T05:38:30;54.75;;;20.92;;
41667;SDS011;27356;50.920;5.350;2024-01-11T05:40:56;62.55;;;23.02;;
41667;SDS011;27356;50.920;5.350;2024-01-11T05:43:22;52.83;;;22.05;;
41667;SDS011;27356;50.920;5.350;2024-01-11T05:45:48;59.22;;;23.92;;
41667;SDS011;27356;50.920;5.350;2024-01-11T05:48:15;58.75;;;20.83;;
41667;SDS011;27356;50.920;5.350;2024-01-11T05:50:41;55.05;;;23.08;;
41667;SDS011;27356;50.920;5.350;2024-01-11T05:53:08;51.00;;;20.75;;
41667;SDS011;27356;50.920;5.350;2024-01-11T05:55:34;53.08;;;21.88;;
41667;SDS011;27356;50.920;5.350;2024-01-11T05:58:00;48.63;;;21.42;;
41667;SDS011;27356;50.920;5.350;2024-01-11T06:00:26;53.10;;;21.13;;
41667;SDS011;27356;50.920;5.350;2024-01-11T06:02:52;46.78;;;21.00;;
41667;SDS011;27356;50.920;5.350;2024-01-11T06:05:18;50.88;;;22.08;;
41667;SDS011;27356;50.920;5.350;2024-01-11T06:07:44;54.83;;;22.23;;
41667;SDS011;27356;50.920;5.350;2024-01-11T06:10:09;59.05;;;23.50;;
41667;SDS011;27356;50.920;5.350;2024-01-11T06:12:35;60.28;;;23.73;;
41667;SDS011;27356;50.920;5.350;2024-01-11T06:15:01;53.60;;;21.35;;
41667;SDS011;27356;50.920;5.350;2024-01-11T06:17:27;60.75;;;23.77;;
41667;SDS011;27356;50.920;5.350;2024-01-11T06:19:54;55.83;;;23.15;;
41667;SDS011;27356;50.920;5.350;2024-01-11T06:22:21;58.83;;;23.85;;
41667;SDS011;27356;50.920;5.350;2024-01-11T06:24:47;59.22;;;22.67;;
41667;SDS011;27356;50.920;5.350;2024-01-11T06:27:12;56.80;;;22.63;;
41667;SDS011;27356;50.920;5.350;2024-01-11T06:29:38;56.33;;;22.65;;
41667;SDS011;27356;50.920;5.350;2024-01-11T06:32:04;53.53;;;23.20;;
41667;SDS011;27356;50.920;5.350;2024-01-11T06:34:31;57.10;;;23.52;;
41667;SDS011;27356;50.920;5.350;2024-01-11T06:36:57;62.75;;;24.30;;
41667;SDS011;27356;50.920;5.350;2024-01-11T06:39:22;51.05;;;20.23;;
41667;SDS011;27356;50.920;5.350;2024-01-11T06:41:48;66.47;;;24.67;;
41667;SDS011;27356;50.920;5.350;2024-01-11T06:44:14;66.28;;;22.85;;
41667;SDS011;27356;50.920;5.350;2024-01-11T06:46:40;54.60;;;22.45;;
41667;SDS011;27356;50.920;5.350;2024-01-11T06:49:09;54.25;;;21.25;;
41667;SDS011;27356;50.920;5.350;2024-01-11T06:51:35;51.53;;;22.17;;
41667;SDS011;27356;50.920;5.350;2024-01-11T06:54:01;53.35;;;22.27;;
41667;SDS011;27356;50.920;5.350;2024-01-11T06:56:27;56.20;;;23.20;;
41667;SDS011;27356;50.920;5.350;2024-01-11T06:58:54;50.45;;;21.00;;
41667;SDS011;27356;50.920;5.350;2024-01-11T07:01:20;56.72;;;23.75;;
41667;SDS011;27356;50.920;5.350;2024-01-11T07:03:46;50.45;;;22.42;;
41667;SDS011;27356;50.920;5.350;2024-01-11T07:06:14;59.17;;;21.38;;
41667;SDS011;27356;50.920;5.350;2024-01-11T07:08:40;62.88;;;23.65;;
41667;SDS011;27356;50.920;5.350;2024-01-11T07:11:06;60.70;;;22.25;;
41667;SDS011;27356;50.920;5.350;2024-01-11T07:13:32;55.75;;;21.52;;
41667;SDS011;27356;50.920;5.350;2024-01-11T07:15:59;57.15;;;24.30;;
41667;SDS011;27356;50.920;5.350;2024-01-11T07:18:25;62.35;;;23.58;;
41667;SDS011;27356;50.920;5.350;2024-01-11T07:20:51;63.13;;;25.10;;
41667;SDS011;27356;50.920;5.350;2024-01-11T07:23:18;55.35;;;22.42;;
41667;SDS011;27356;50.920;5.350;2024-01-11T07:25:43;57.58;;;22.48;;
41667;SDS011;27356;50.920;5.350;2024-01-11T07:28:09;61.63;;;24.83;;
41667;SDS011;27356;50.920;5.350;2024-01-11T07:30:35;62.55;;;23.00;;
41667;SDS011;27356;50.920;5.350;2024-01-11T07:33:01;71.35;;;26.10;;
41667;SDS011;27356;50.920;5.350;2024-01-11T07:35:27;66.65;;;26.30;;
41667;SDS011;27356;50.920;5.350;2024-01-11T07:37:53;66.20;;;25.25;;
41667;SDS011;27356;50.920;5.350;2024-01-11T07:40:19;56.58;;;24.40;;
41667;SDS011;27356;50.920;5.350;2024-01-11T07:42:45;55.63;;;22.10;;
41667;SDS011;27356;50.920;5.350;2024-01-11T07:45:11;64.03;;;24.42;;
41667;SDS011;27356;50.920;5.350;2024-01-11T07:47:37;61.35;;;22.08;;
41667;SDS011;27356;50.920;5.350;2024-01-11T07:50:05;55.92;;;23.02;;
41667;SDS011;27356;50.920;5.350;2024-01-11T07:52:37;60.25;;;23.83;;
41667;SDS011;27356;50.920;5.350;2024-01-11T07:55:06;51.13;;;22.23;;
41667;SDS011;27356;50.920;5.350;2024-01-11T07:57:36;56.85;;;23.90;;
41667;SDS011;27356;50.920;5.350;2024-01-11T08:00:04;70.75;;;28.27;;
41667;SDS011;27356;50.920;5.350;2024-01-11T08:02:32;57.08;;;23.73;;
41667;SDS011;27356;50.920;5.350;2024-01-11T08:04:58;66.53;;;24.52;;
41667;SDS011;27356;50.920;5.350;2024-01-11T08:07:27;63.22;;;24.92;;
41667;SDS011;27356;50.920;5.350;2024-01-11T08:09:53;59.55;;;23.40;;
41667;SDS011;27356;50.920;5.350;2024-01-11T08:12:20;55.88;;;23.75;;
41667;SDS011;27356;50.920;5.350;2024-01-11T08:14:51;64.65;;;22.55;;
41667;SDS011;27356;50.920;5.350;2024-01-11T08:17:30;56.50;;;23.33;;
41667;SDS011;27356;50.920;5.350;2024-01-11T08:19:56;60.67;;;25.08;;
41667;SDS011;27356;50.920;5.350;2024-01-11T08:22:22;55.45;;;22.85;;
41667;SDS011;27356;50.920;5.350;2024-01-11T08:24:48;57.40;;;23.33;;
41667;SDS011;27356;50.920;5.350;2024-01-11T08:27:15;57.30;;;23.00;;
41667;SDS011;27356;50.920;5.350;2024-01-11T08:29:42;59.55;;;24.80;;
41667;SDS011;27356;50.920;5.350;2024-01-11T08:32:08;62.55;;;22.50;;
41667;SDS011;27356;50.920;5.350;2024-01-11T08:34:34;58.67;;;24.90;;
41667;SDS011;27356;50.920;5.350;2024-01-11T08:37:00;69.05;;;25.40;;
41667;SDS011;27356;50.920;5.350;2024-01-11T08:39:26;66.18;;;25.85;;
41667;SDS011;27356;50.920;5.350;2024-01-11T08:41:52;70.93;;;27.08;;
41667;SDS011;27356;50.920;5.350;2024-01-11T08:44:18;67.82;;;23.90;;
41667;SDS011;27356;50.920;5.350;2024-01-11T08:46:44;63.95;;;24.33;;
41667;SDS011;27356;50.920;5.350;2024-01-11T08:49:10;57.20;;;24.45;;
41667;SDS011;27356;50.920;5.350;2024-01-11T08:51:36;57.25;;;24.60;;
41667;SDS011;27356;50.920;5.350;2024-01-11T08:54:01;55.45;;;23.45;;
41667;SDS011;27356;50.920;5.350;2024-01-11T08:56:29;64.32;;;25.77;;
41667;SDS011;27356;50.920;5.350;2024-01-11T08:58:55;67.15;;;25.40;;
41667;SDS011;27356;50.920;5.350;2024-01-11T09:01:21;60.95;;;24.92;;
41667;SDS011;27356;50.920;5.350;2024-01-11T09:03:47;63.20;;;26.85;;
41667;SDS011;27356;50.920;5.350;2024-01-11T09:06:13;65.22;;;24.67;;
41667;SDS011;27356;50.920;5.350;2024-01-11T09:08:39;72.68;;;25.05;;
41667;SDS011;27356;50.920;5.350;2024-01-11T09:11:08;61.42;;;24.17;;
41667;SDS011;27356;50.920;5.350;2024-01-11T09:13:36;67.07;;;25.27;;
41667;SDS011;27356;50.920;5.350;2024-01-11T09:16:02;57.20;;;24.23;;
41667;SDS011;27356;50.920;5.350;2024-01-11T09:18:28;66.70;;;26.63;;
41667;SDS011;27356;50.920;5.350;2024-01-11T09:20:53;58.20;;;23.92;;
41667;SDS011;27356;50.920;5.350;2024-01-11T09:23:21;58.08;;;22.45;;
41667;SDS011;27356;50.920;5.350;2024-01-11T09:25:47;61.85;;;23.48;;
41667;SDS011;27356;50.920;5.350;2024-01-11T09:28:12;62.42;;;24.58;;
41667;SDS011;27356;50.920;5.350;2024-01-11T09:30:38;61.00;;;25.00;;
41667;SDS011;27356;50.920;5.350;2024-01-11T09:33:04;52.75;;;21.95;;
41667;SDS011;27356;50.920;5.350;2024-01-11T09:35:31;60.92;;;24.83;;
41667;SDS011;27356;50.920;5.350;2024-01-11T09:37:57;63.83;;;27.27;;
41667;SDS011;27356;50.920;5.350;2024-01-11T09:40:23;61.90;;;25.30;;
41667;SDS011;27356;50.920;5.350;2024-01-11T09:42:49;67.60;;;25.88;;
41667;SDS011;27356;50.920;5.350;2024-01-11T09:45:15;56.05;;;24.15;;
41667;SDS011;27356;50.920;5.350;2024-01-11T09:47:42;60.10;;;24.60;;
41667;SDS011;27356;50.920;5.350;2024-01-11T09:50:11;53.75;;;24.23;;
41667;SDS011;27356;50.920;5.350;2024-01-11T09:52:45;52.80;;;24.03;;
41667;SDS011;27356;50.920;5.350;2024-01-11T09:55:15;66.85;;;25.13;;
41667;SDS011;27356;50.920;5.350;2024-01-11T09:57:44;55.70;;;23.73;;
41667;SDS011;27356;50.920;5.350;2024-01-11T10:00:13;58.28;;;24.20;;
41667;SDS011;27356;50.920;5.350;2024-01-11T10:02:44;54.25;;;23.70;;
41667;SDS011;27356;50.920;5.350;2024-01-11T10:05:13;59.00;;;24.92;;
41667;SDS011;27356;50.920;5.350;2024-01-11T10:07:41;51.67;;;22.60;;
41667;SDS011;27356;50.920;5.350;2024-01-11T10:10:07;60.78;;;24.98;;
41667;SDS011;27356;50.920;5.350;2024-01-11T10:12:34;57.58;;;23.38;;
41667;SDS011;27356;50.920;5.350;2024-01-11T10:15:07;58.72;;;24.05;;
41667;SDS011;27356;50.920;5.350;2024-01-11T10:17:41;64.40;;;24.25;;
41667;SDS011;27356;50.920;5.350;2024-01-11T10:20:11;62.28;;;23.52;;
41667;SDS011;27356;50.920;5.350;2024-01-11T10:22:42;57.90;;;23.92;;
41667;SDS011;27356;50.920;5.350;2024-01-11T10:25:09;55.55;;;23.58;;
41667;SDS011;27356;50.920;5.350;2024-01-11T10:27:37;64.75;;;24.35;;
41667;SDS011;27356;50.920;5.350;2024-01-11T10:30:04;56.75;;;25.08;;
41667;SDS011;27356;50.920;5.350;2024-01-11T10:32:33;55.30;;;22.45;;
41667;SDS011;27356;50.920;5.350;2024-01-11T10:35:00;58.42;;;23.45;;
41667;SDS011;27356;50.920;5.350;2024-01-11T10:37:30;56.55;;;24.50;;
41667;SDS011;27356;50.920;5.350;2024-01-11T10:40:03;54.67;;;24.48;;
41667;SDS011;27356;50.920;5.350;2024-01-11T10:42:49;58.88;;;24.17;;
41667;SDS011;27356;50.920;5.350;2024-01-11T10:45:19;61.90;;;24.08;;
41667;SDS011;27356;50.920;5.350;2024-01-11T10:47:55;60.38;;;24.17;;
41667;SDS011;27356;50.920;5.350;2024-01-11T10:50:26;55.30;;;23.40;;
41667;SDS011;27356;50.920;5.350;2024-01-11T10:53:21;49.28;;;23.02;;
41667;SDS011;27356;50.920;5.350;2024-01-11T10:55:59;45.45;;;21.17;;
41667;SDS011;27356;50.920;5.350;2024-01-11T10:58:28;51.58;;;22.42;;
41667;SDS011;27356;50.920;5.350;2024-01-11T11:00:56;51.55;;;22.33;;
41667;SDS011;27356;50.920;5.350;2024-01-11T11:03:24;57.95;;;25.17;;
41667;SDS011;27356;50.920;5.350;2024-01-11T11:05:54;55.42;;;24.50;;
41667;SDS011;27356;50.920;5.350;2024-01-11T11:08:22;56.05;;;23.77;;
41667;SDS011;27356;50.920;5.350;2024-01-11T11:10:50;55.30;;;23.40;;
41667;SDS011;27356;50.920;5.350;2024-01-11T11:13:21;55.03;;;22.30;;
41667;SDS011;27356;50.920;5.350;2024-01-11T11:15:47;47.35;;;20.67;;
41667;SDS011;27356;50.920;5.350;2024-01-11T11:18:16;52.72;;;21.58;;
41667;SDS011;27356;50.920;5.350;2024-01-11T11:20:43;48.20;;;21.48;;
41667;SDS011;27356;50.920;5.350;2024-01-11T11:23:11;50.95;;;22.65;;
41667;SDS011;27356;50.920;5.350;2024-01-11T11:25:40;53.20;;;21.83;;
41667;SDS011;27356;50.920;5.350;2024-01-11T11:28:06;49.95;;;21.88;;
41667;SDS011;27356;50.920;5.350;2024-01-11T11:30:33;50.67;;;21.88;;
41667;SDS011;27356;50.920;5.350;2024-01-11T11:33:22;53.63;;;22.73;;
41667;SDS011;27356;50.920;5.350;2024-01-11T11:35:51;51.83;;;22.17;;
41667;SDS011;27356;50.920;5.350;2024-01-11T11:38:30;52.75;;;22.13;;
41667;SDS011;27356;50.920;5.350;2024-01-11T11:40:58;52.05;;;21.65;;
41667;SDS011;27356;50.920;5.350;2024-01-11T11:43:26;45.95;;;22.33;;
41667;SDS011;27356;50.920;5.350;2024-01-11T11:45:53;52.65;;;20.95;;
41667;SDS011;27356;50.920;5.350;2024-01-11T11:51:01;44.78;;;19.63;;
41667;SDS011;27356;50.920;5.350;2024-01-11T11:53:41;45.95;;;20.25;;
41667;SDS011;27356;50.920;5.350;2024-01-11T11:56:08;43.13;;;19.88;;
41667;SDS011;27356;50.920;5.350;2024-01-11T11:58:35;44.58;;;18.08;;
41667;SDS011;27356;50.920;5.350;2024-01-11T12:01:01;34.75;;;17.58;;
41667;SDS011;27356;50.920;5.350;2024-01-11T12:03:35;40.08;;;18.63;;
41667;SDS011;27356;50.920;5.350;2024-01-11T12:06:03;38.50;;;17.60;;
41667;SDS011;27356;50.920;5.350;2024-01-11T12:08:30;46.33;;;20.33;;
41667;SDS011;27356;50.920;5.350;2024-01-11T12:10:57;41.15;;;19.23;;
41667;SDS011;27356;50.920;5.350;2024-01-11T12:13:25;43.72;;;18.98;;
41667;SDS011;27356;50.920;5.350;2024-01-11T12:15:52;38.95;;;15.82;;
41667;SDS011;27356;50.920;5.350;2024-01-11T12:18:18;45.33;;;17.98;;
41667;SDS011;27356;50.920;5.350;2024-01-11T12:20:44;41.60;;;17.52;;
41667;SDS011;27356;50.920;5.350;2024-01-11T12:23:11;46.22;;;18.02;;
41667;SDS011;27356;50.920;5.350;2024-01-11T12:25:39;39.97;;;17.00;;
41667;SDS011;27356;50.920;5.350;2024-01-11T12:28:06;38.20;;;17.33;;
41667;SDS011;27356;50.920;5.350;2024-01-11T12:30:32;36.95;;;16.90;;
41667;SDS011;27356;50.920;5.350;2024-01-11T12:32:58;33.05;;;17.58;;
41667;SDS011;27356;50.920;5.350;2024-01-11T12:35:29;41.60;;;18.65;;
41667;SDS011;27356;50.920;5.350;2024-01-11T12:37:59;41.42;;;17.65;;
41667;SDS011;27356;50.920;5.350;2024-01-11T12:40:31;36.83;;;17.02;;
41667;SDS011;27356;50.920;5.350;2024-01-11T12:42:58;35.45;;;16.42;;
41667;SDS011;27356;50.920;5.350;2024-01-11T12:45:25;35.30;;;15.63;;
41667;SDS011;27356;50.920;5.350;2024-01-11T12:47:51;37.63;;;16.67;;
41667;SDS011;27356;50.920;5.350;2024-01-11T12:50:19;39.95;;;15.52;;
41667;SDS011;27356;50.920;5.350;2024-01-11T12:52:45;32.42;;;15.20;;
41667;SDS011;27356;50.920;5.350;2024-01-11T12:55:18;34.35;;;16.77;;
41667;SDS011;27356;50.920;5.350;2024-01-11T12:57:44;38.75;;;15.95;;
41667;SDS011;27356;50.920;5.350;2024-01-11T13:00:11;34.90;;;15.98;;
41667;SDS011;27356;50.920;5.350;2024-01-11T13:02:41;36.85;;;15.57;;
41667;SDS011;27356;50.920;5.350;2024-01-11T13:05:11;36.78;;;16.90;;
41667;SDS011;27356;50.920;5.350;2024-01-11T13:07:37;32.58;;;14.45;;
41667;SDS011;27356;50.920;5.350;2024-01-11T13:10:03;33.78;;;15.55;;
41667;SDS011;27356;50.920;5.350;2024-01-11T13:12:30;29.90;;;15.50;;
41667;SDS011;27356;50.920;5.350;2024-01-11T13:14:56;34.72;;;15.13;;
41667;SDS011;27356;50.920;5.350;2024-01-11T13:17:22;33.17;;;15.82;;
41667;SDS011;27356;50.920;5.350;2024-01-11T13:19:48;34.35;;;15.10;;
41667;SDS011;27356;50.920;5.350;2024-01-11T13:22:14;30.65;;;14.82;;
41667;SDS011;27356;50.920;5.350;2024-01-11T13:24:40;30.02;;;15.15;;
41667;SDS011;27356;50.920;5.350;2024-01-11T13:27:06;38.63;;;15.25;;
41667;SDS011;27356;50.920;5.350;2024-01-11T13:29:32;41.60;;;15.88;;
41667;SDS011;27356;50.920;5.350;2024-01-11T13:31:58;32.53;;;15.57;;
41667;SDS011;27356;50.920;5.350;2024-01-11T13:34:24;29.63;;;14.07;;
41667;SDS011;27356;50.920;5.350;2024-01-11T13:36:50;29.77;;;13.57;;
41667;SDS011;27356;50.920;5.350;2024-01-11T13:39:15;30.77;;;14.52;;
41667;SDS011;27356;50.920;5.350;2024-01-11T13:41:43;32.38;;;14.50;;
41667;SDS011;27356;50.920;5.350;2024-01-11T13:44:09;29.23;;;13.93;;
41667;SDS011;27356;50.920;5.350;2024-01-11T13:46:36;37.30;;;15.70;;
41667;SDS011;27356;50.920;5.350;2024-01-11T13:49:02;30.67;;;14.65;;
41667;SDS011;27356;50.920;5.350;2024-01-11T13:51:29;27.38;;;13.57;;
41667;SDS011;27356;50.920;5.350;2024-01-11T13:53:57;32.03;;;14.20;;
41667;SDS011;27356;50.920;5.350;2024-01-11T13:56:25;31.65;;;13.80;;
41667;SDS011;27356;50.920;5.350;2024-01-11T13:58:52;33.60;;;13.85;;
41667;SDS011;27356;50.920;5.350;2024-01-11T14:01:18;33.58;;;13.90;;
41667;SDS011;27356;50.920;5.350;2024-01-11T14:03:44;32.58;;;13.15;;
41667;SDS011;27356;50.920;5.350;2024-01-11T14:06:10;31.45;;;14.35;;
41667;SDS011;27356;50.920;5.350;2024-01-11T14:08:36;31.83;;;13.52;;
41667;SDS011;27356;50.920;5.350;2024-01-11T14:11:02;37.53;;;14.25;;
41667;SDS011;27356;50.920;5.350;2024-01-11T14:13:29;31.02;;;13.82;;
41667;SDS011;27356;50.920;5.350;2024-01-11T14:15:55;25.70;;;12.50;;
41667;SDS011;27356;50.920;5.350;2024-01-11T14:18:22;29.52;;;12.30;;
41667;SDS011;27356;50.920;5.350;2024-01-11T14:20:48;29.58;;;13.30;;
41667;SDS011;27356;50.920;5.350;2024-01-11T14:23:14;26.77;;;13.07;;
41667;SDS011;27356;50.920;5.350;2024-01-11T14:25:39;26.40;;;12.88;;
41667;SDS011;27356;50.920;5.350;2024-01-11T14:28:06;29.67;;;12.27;;